Time;durP1;ratioP1;P1;durP2;ratioP2;P2;SDS_P1;SDS_P2;PMS_P1;PMS_P2;Temp;Humidity;BMP_temperature;BMP_pressure;BME280_temperature;BME280_humidity;BME280_pressure;Samples;Min_cycle;Max_cycle;Signal;HPM_P1;HPM_P2
2022/08/19 00:00:14;;;;;;;4.90;4.43;;;20.40;89.90;;;;;;5067669;28;20720;-85
2022/08/19 00:02:41;;;;;;;6.20;4.90;;;20.50;89.90;;;;;;5067164;28;20723;-83
2022/08/19 00:05:09;;;;;;;5.70;4.83;;;20.50;89.60;;;;;;5068263;28;20696;-84
2022/08/19 00:07:36;;;;;;;9.20;5.97;;;20.50;89.60;;;;;;5066910;28;20625;-83
2022/08/19 00:10:05;;;;;;;7.10;5.00;;;20.50;89.80;;;;;;5067561;28;20648;-85
2022/08/19 00:12:32;;;;;;;5.47;4.87;;;20.50;90.00;;;;;;5067268;28;20674;-85
2022/08/19 00:14:59;;;;;;;6.20;4.40;;;20.50;90.10;;;;;;5066892;28;21037;-84
2022/08/19 00:17:27;;;;;;;6.00;5.40;;;20.50;90.30;;;;;;5066600;28;20661;-84
2022/08/19 00:19:54;;;;;;;4.93;4.30;;;20.50;90.50;;;;;;5068034;28;20664;-85
2022/08/19 00:22:21;;;;;;;6.73;5.10;;;20.40;90.60;;;;;;5066860;28;20720;-84
2022/08/19 00:24:47;;;;;;;7.77;5.73;;;20.40;91.00;;;;;;5067397;28;20713;-83
2022/08/19 00:27:15;;;;;;;6.53;5.53;;;20.40;90.80;;;;;;5065809;28;20630;-85
2022/08/19 00:29:42;;;;;;;7.63;5.40;;;20.40;91.00;;;;;;5067598;28;20598;-86
2022/08/19 00:32:09;;;;;;;7.83;5.00;;;20.40;91.00;;;;;;5081342;28;20690;-85
2022/08/19 00:34:37;;;;;;;6.17;4.73;;;20.40;90.80;;;;;;5077909;28;21244;-84
2022/08/19 00:37:04;;;;;;;6.33;5.07;;;20.30;90.60;;;;;;5075832;28;21166;-85
2022/08/19 00:39:31;;;;;;;8.10;4.03;;;20.40;90.80;;;;;;5087770;28;20704;-84
2022/08/19 00:41:58;;;;;;;7.57;4.97;;;20.20;90.80;;;;;;5082486;28;20616;-85
2022/08/19 00:44:27;;;;;;;7.27;5.07;;;20.20;91.00;;;;;;5087568;28;21237;-86
2022/08/19 00:46:58;;;;;;;5.27;4.53;;;20.30;91.00;;;;;;5070023;28;20672;-86
2022/08/19 00:49:30;;;;;;;6.30;5.37;;;20.20;91.00;;;;;;5071850;28;20727;-86
2022/08/19 00:52:05;;;;;;;5.57;4.60;;;20.30;91.30;;;;;;5083196;28;20647;-84
2022/08/19 00:54:32;;;;;;;5.30;4.80;;;20.30;91.20;;;;;;5087301;28;20726;-85
2022/08/19 00:57:02;;;;;;;7.90;4.90;;;20.30;91.50;;;;;;5079544;28;20729;-83
2022/08/19 00:59:30;;;;;;;5.57;5.00;;;20.20;91.40;;;;;;5082890;28;20663;-84
2022/08/19 01:01:57;;;;;;;6.90;4.90;;;20.20;91.50;;;;;;5084225;28;21248;-84
2022/08/19 01:04:24;;;;;;;5.00;4.50;;;20.20;92.00;;;;;;5066999;28;20670;-85
2022/08/19 01:06:51;;;;;;;6.43;5.00;;;20.20;91.90;;;;;;5078636;28;21098;-84
2022/08/19 01:09:19;;;;;;;6.60;4.80;;;20.00;92.50;;;;;;5068674;28;20716;-84
2022/08/19 01:11:46;;;;;;;5.67;4.50;;;20.20;92.90;;;;;;5080484;28;20668;-85
2022/08/19 01:14:16;;;;;;;4.07;3.60;;;20.10;92.60;;;;;;5086001;28;20624;-87
2022/08/19 01:16:46;;;;;;;7.53;5.00;;;20.10;92.90;;;;;;5075330;28;21010;-86
2022/08/19 01:19:20;;;;;;;6.30;5.50;;;20.10;93.20;;;;;;5075290;28;20657;-84
2022/08/19 01:21:56;;;;;;;5.80;4.50;;;20.10;92.90;;;;;;5067784;28;20694;-83
2022/08/19 01:24:25;;;;;;;7.77;6.37;;;20.10;93.10;;;;;;5067264;28;20609;-85
2022/08/19 01:26:54;;;;;;;7.47;5.40;;;20.00;93.80;;;;;;5069060;28;21270;-84
2022/08/19 01:29:21;;;;;;;5.57;4.63;;;20.00;94.10;;;;;;5069542;28;20625;-84
2022/08/19 01:31:51;;;;;;;5.20;4.27;;;19.90;94.20;;;;;;5081928;28;21206;-84
2022/08/19 01:34:20;;;;;;;6.73;5.53;;;19.90;94.00;;;;;;5079188;28;20620;-84
2022/08/19 01:36:48;;;;;;;5.93;4.70;;;19.90;94.10;;;;;;5078784;28;20621;-84
2022/08/19 01:39:17;;;;;;;6.47;4.87;;;19.90;94.00;;;;;;5091018;28;21075;-84
2022/08/19 01:41:46;;;;;;;8.37;6.07;;;19.90;93.50;;;;;;5075075;28;20622;-85
2022/08/19 01:44:13;;;;;;;8.40;5.43;;;19.90;93.60;;;;;;5089188;28;20640;-85
2022/08/19 01:46:40;;;;;;;7.00;5.30;;;19.90;93.70;;;;;;5069223;28;20665;-85
2022/08/19 01:49:08;;;;;;;6.63;4.67;;;19.90;93.40;;;;;;5071024;28;20988;-86
2022/08/19 01:51:35;;;;;;;7.60;5.10;;;20.00;93.70;;;;;;5075236;28;20932;-84
2022/08/19 01:54:02;;;;;;;6.40;5.60;;;19.90;93.40;;;;;;5072277;28;20613;-85
2022/08/19 01:56:29;;;;;;;7.40;4.70;;;19.90;93.40;;;;;;5072366;28;20705;-84
2022/08/19 01:59:00;;;;;;;7.43;5.30;;;19.90;93.20;;;;;;5070976;28;20945;-86
2022/08/19 02:01:31;;;;;;;6.87;5.07;;;20.00;92.90;;;;;;5089633;28;20613;-85
2022/08/19 02:03:59;;;;;;;8.20;5.20;;;20.00;93.00;;;;;;5085843;28;20627;-84
2022/08/19 02:06:27;;;;;;;8.83;6.67;;;19.90;93.30;;;;;;5088436;28;20695;-84
2022/08/19 02:08:54;;;;;;;9.47;5.20;;;19.90;93.50;;;;;;5083803;28;20629;-84
2022/08/19 02:11:22;;;;;;;9.37;6.10;;;19.90;93.60;;;;;;5071109;28;20636;-85
2022/08/19 02:13:50;;;;;;;8.57;5.87;;;19.80;93.60;;;;;;5080862;28;20973;-85
2022/08/19 02:16:19;;;;;;;5.60;4.63;;;19.80;93.80;;;;;;5069781;28;20637;-85
2022/08/19 02:18:48;;;;;;;7.50;5.37;;;19.80;93.80;;;;;;5071796;28;21205;-84
2022/08/19 02:21:15;;;;;;;8.23;5.80;;;;;;;;;;5070250;28;20631;-85
2022/08/19 02:23:42;;;;;;;8.80;5.83;;;19.90;93.30;;;;;;5075052;28;20630;-86
2022/08/19 02:26:10;;;;;;;9.10;7.00;;;19.80;93.50;;;;;;5083469;28;20763;-85
2022/08/19 02:28:37;;;;;;;6.53;5.30;;;19.80;93.70;;;;;;5089608;28;20600;-85
2022/08/19 02:31:04;;;;;;;7.00;5.50;;;19.80;93.80;;;;;;5076221;28;21182;-84
2022/08/19 02:33:32;;;;;;;10.00;5.03;;;19.80;93.80;;;;;;5079487;28;20732;-85
2022/08/19 02:35:59;;;;;;;8.30;6.20;;;19.80;94.20;;;;;;5070679;28;20649;-85
2022/08/19 02:38:27;;;;;;;8.00;6.40;;;19.80;93.90;;;;;;5079426;28;20678;-85
2022/08/19 02:40:57;;;;;;;8.17;5.63;;;19.70;93.70;;;;;;5087646;28;20632;-86
2022/08/19 02:43:25;;;;;;;7.23;5.80;;;19.80;94.00;;;;;;5081775;28;20623;-83
2022/08/19 02:45:53;;;;;;;7.23;5.20;;;19.70;94.10;;;;;;5089960;28;20648;-84
2022/08/19 02:48:23;;;;;;;8.00;5.93;;;19.70;94.20;;;;;;5085325;28;21040;-85
2022/08/19 02:50:55;;;;;;;7.67;5.27;;;19.70;94.40;;;;;;5068812;28;20725;-85
2022/08/19 02:53:24;;;;;;;5.93;4.87;;;19.70;94.50;;;;;;5068337;28;20697;-84
2022/08/19 02:55:52;;;;;;;7.47;5.70;;;19.60;94.60;;;;;;5069124;28;20664;-84
2022/08/19 02:58:22;;;;;;;7.40;5.83;;;19.60;94.60;;;;;;5067778;28;21019;-85
2022/08/19 03:00:52;;;;;;;7.23;5.40;;;19.60;94.60;;;;;;5069377;28;20649;-86
2022/08/19 03:03:20;;;;;;;9.23;5.83;;;19.60;94.40;;;;;;5068424;28;20614;-84
2022/08/19 03:05:47;;;;;;;7.13;5.07;;;19.70;94.60;;;;;;5067518;28;20632;-86
2022/08/19 03:08:15;;;;;;;6.60;5.40;;;19.70;94.40;;;;;;5068422;28;20626;-84
2022/08/19 03:10:46;;;;;;;11.17;6.10;;;19.60;94.70;;;;;;5068583;28;20621;-85
2022/08/19 03:13:14;;;;;;;7.33;5.00;;;19.60;94.90;;;;;;5068583;28;20614;-84
2022/08/19 03:15:43;;;;;;;10.00;5.90;;;19.50;95.30;;;;;;5068777;28;20633;-84
2022/08/19 03:18:11;;;;;;;7.50;5.40;;;19.50;95.30;;;;;;5068206;28;20629;-84
2022/08/19 03:20:44;;;;;;;11.07;6.20;;;19.60;95.20;;;;;;5074859;28;20639;-85
2022/08/19 03:23:12;;;;;;;11.03;5.97;;;19.50;95.10;;;;;;5081205;28;20648;-85
2022/08/19 03:25:43;;;;;;;6.87;4.70;;;19.50;95.50;;;;;;5068572;28;20610;-84
2022/08/19 03:28:12;;;;;;;9.20;6.50;;;19.50;95.50;;;;;;5077976;28;20620;-83
2022/08/19 03:30:43;;;;;;;8.17;5.93;;;19.50;95.40;;;;;;5086538;28;20698;-85
2022/08/19 03:33:12;;;;;;;7.70;6.33;;;19.60;95.20;;;;;;5082756;28;20619;-84
2022/08/19 03:35:44;;;;;;;6.20;5.53;;;19.60;95.20;;;;;;5085222;28;21263;-85
2022/08/19 03:38:13;;;;;;;8.73;6.07;;;19.60;95.20;;;;;;5087785;28;20647;-86
2022/08/19 03:40:42;;;;;;;9.47;6.30;;;19.60;95.30;;;;;;5072788;28;21006;-85
2022/08/19 03:43:10;;;;;;;6.90;5.83;;;19.50;95.40;;;;;;5075818;28;20732;-85
2022/08/19 03:45:38;;;;;;;9.83;6.33;;;19.50;95.30;;;;;;5072848;28;21153;-84
2022/08/19 03:48:06;;;;;;;10.47;7.47;;;19.50;95.50;;;;;;5087664;28;20659;-85
2022/08/19 03:50:39;;;;;;;7.03;5.57;;;19.40;95.70;;;;;;5086562;28;20633;-85
2022/08/19 03:53:08;;;;;;;7.60;5.30;;;19.50;95.70;;;;;;5081956;28;21239;-85
2022/08/19 03:55:41;;;;;;;9.20;6.60;;;19.40;95.70;;;;;;5071578;28;20720;-84
2022/08/19 03:58:08;;;;;;;7.87;5.90;;;19.40;95.70;;;;;;5066352;28;20724;-85
2022/08/19 04:00:35;;;;;;;8.43;5.57;;;19.40;95.90;;;;;;5067936;28;20613;-85
2022/08/19 04:03:02;;;;;;;11.07;7.40;;;19.40;95.90;;;;;;5067299;28;20617;-86
2022/08/19 04:05:29;;;;;;;6.40;5.60;;;19.30;96.10;;;;;;5067803;28;20754;-85
2022/08/19 04:07:58;;;;;;;11.63;7.87;;;19.30;96.20;;;;;;5067348;28;20667;-84
2022/08/19 04:10:25;;;;;;;10.30;7.40;;;19.30;96.10;;;;;;5067198;28;20966;-84
2022/08/19 04:12:53;;;;;;;10.43;7.90;;;19.30;96.30;;;;;;5067434;28;20634;-85
2022/08/19 04:15:21;;;;;;;9.53;6.10;;;19.30;96.30;;;;;;5067572;28;20710;-83
2022/08/19 04:17:48;;;;;;;10.47;7.93;;;19.30;96.20;;;;;;5067083;28;20649;-84
2022/08/19 04:20:14;;;;;;;7.70;6.40;;;19.10;96.50;;;;;;5067828;28;20732;-85
2022/08/19 04:22:41;;;;;;;8.90;6.63;;;19.10;96.70;;;;;;5067562;28;20710;-85
2022/08/19 04:25:09;;;;;;;10.43;8.23;;;19.20;96.50;;;;;;5068166;28;20625;-84
2022/08/19 04:27:36;;;;;;;6.73;5.90;;;19.20;96.70;;;;;;5066641;28;20767;-84
2022/08/19 04:30:05;;;;;;;8.40;6.53;;;19.20;96.50;;;;;;5067377;28;20624;-85
2022/08/19 04:32:32;;;;;;;9.27;6.20;;;19.20;96.30;;;;;;5084801;28;20629;-85
2022/08/19 04:34:59;;;;;;;13.23;8.90;;;19.20;96.50;;;;;;5084122;28;20627;-84
2022/08/19 04:37:27;;;;;;;8.10;6.87;;;19.30;96.40;;;;;;5085562;28;21275;-85
2022/08/19 04:42:41;;;;;;;11.97;7.93;;;19.30;96.20;;;;;;5069623;28;20639;-85
2022/08/19 04:45:13;;;;;;;9.87;7.40;;;19.20;96.60;;;;;;5076072;28;20632;-85
2022/08/19 04:47:42;;;;;;;8.40;6.23;;;19.20;96.80;;;;;;5080953;28;21367;-84
2022/08/19 04:50:11;;;;;;;12.27;7.90;;;19.20;96.90;;;;;;5082876;28;21679;-84
2022/08/19 04:52:41;;;;;;;9.27;6.90;;;19.10;96.90;;;;;;5073696;28;20634;-85
2022/08/19 04:55:09;;;;;;;12.00;7.40;;;19.10;96.90;;;;;;5081851;28;20625;-85
2022/08/19 04:57:40;;;;;;;7.63;6.10;;;19.20;96.90;;;;;;5081748;28;20637;-85
2022/08/19 05:00:10;;;;;;;9.93;7.57;;;19.20;96.70;;;;;;5076738;28;20651;-85
2022/08/19 05:02:38;;;;;;;10.10;6.60;;;19.20;96.80;;;;;;5081224;28;21190;-83
2022/08/19 05:05:06;;;;;;;12.17;7.97;;;19.20;96.80;;;;;;5068208;28;20673;-84
2022/08/19 05:07:33;;;;;;;9.53;7.17;;;19.20;97.00;;;;;;5066411;28;20903;-84
2022/08/19 05:10:00;;;;;;;9.33;6.77;;;19.20;97.30;;;;;;5084963;28;20642;-84
2022/08/19 05:12:28;;;;;;;8.90;6.33;;;19.20;96.70;;;;;;5086776;28;20705;-83
2022/08/19 05:14:56;;;;;;;8.30;7.03;;;19.20;96.90;;;;;;5070967;28;21051;-84
2022/08/19 05:17:24;;;;;;;9.53;6.97;;;19.20;97.00;;;;;;5070510;28;20728;-85
2022/08/19 05:22:36;;;;;;;11.23;7.10;;;19.20;96.50;;;;;;5083325;28;20629;-85
2022/08/19 05:25:06;;;;;;;9.63;7.30;;;19.30;96.70;;;;;;5071718;28;21218;-83
2022/08/19 05:27:33;;;;;;;7.60;6.87;;;19.30;96.50;;;;;;5069597;28;20663;-85
2022/08/19 05:30:01;;;;;;;9.83;7.20;;;19.30;96.70;;;;;;5070523;28;20649;-84
2022/08/19 05:32:29;;;;;;;10.47;6.73;;;19.40;96.70;;;;;;5086132;28;20623;-85
2022/08/19 05:34:56;;;;;;;10.07;7.50;;;19.40;96.60;;;;;;5089437;28;20649;-84
2022/08/19 05:37:26;;;;;;;10.03;7.23;;;19.50;96.50;;;;;;5090568;28;20636;-84
2022/08/19 05:39:54;;;;;;;8.97;6.43;;;19.40;96.60;;;;;;5090685;28;21182;-84
2022/08/19 05:42:22;;;;;;;10.17;8.20;;;19.40;96.50;;;;;;5090093;28;20667;-84
2022/08/19 05:44:50;;;;;;;7.47;6.67;;;19.50;96.60;;;;;;5089762;28;20627;-84
2022/08/19 05:47:19;;;;;;;7.83;6.80;;;19.30;96.50;;;;;;5089020;28;20679;-84
2022/08/19 05:49:49;;;;;;;8.67;7.03;;;19.30;96.70;;;;;;5089642;28;20694;-84
2022/08/19 05:52:16;;;;;;;7.90;7.10;;;19.30;96.80;;;;;;5089757;28;20628;-84
2022/08/19 05:54:47;;;;;;;9.20;6.00;;;19.40;96.70;;;;;;5088878;28;20747;-83
2022/08/19 05:57:15;;;;;;;9.33;6.33;;;19.40;96.80;;;;;;5082324;28;20640;-85
2022/08/19 05:59:42;;;;;;;6.00;5.40;;;19.40;96.80;;;;;;5078149;28;20609;-84
2022/08/19 06:02:08;;;;;;;8.53;6.20;;;19.30;96.90;;;;;;5091023;28;20708;-85
2022/08/19 06:04:35;;;;;;;9.67;7.20;;;19.30;96.90;;;;;;5090433;28;20719;-84
2022/08/19 06:07:04;;;;;;;8.20;6.50;;;19.30;97.00;;;;;;5089632;28;20637;-85
2022/08/19 06:09:31;;;;;;;8.30;6.67;;;19.30;96.90;;;;;;5090583;28;20673;-86
2022/08/19 06:12:02;;;;;;;9.10;6.93;;;19.40;96.80;;;;;;5090727;28;20624;-83
2022/08/19 06:14:34;;;;;;;9.70;7.70;;;19.40;96.60;;;;;;5090423;28;20624;-85
2022/08/19 06:17:02;;;;;;;6.40;5.77;;;19.40;96.70;;;;;;5090297;28;20723;-84
2022/08/19 06:19:30;;;;;;;6.97;5.77;;;19.40;96.90;;;;;;5089886;28;20628;-83
2022/08/19 06:21:59;;;;;;;9.60;6.10;;;19.40;96.60;;;;;;5090279;28;20659;-84
2022/08/19 06:24:28;;;;;;;8.73;5.30;;;19.50;96.60;;;;;;5072191;28;20629;-85
2022/08/19 06:26:57;;;;;;;6.80;5.97;;;19.50;96.70;;;;;;5069797;28;20647;-86
2022/08/19 06:29:26;;;;;;;8.70;6.50;;;19.50;96.70;;;;;;5069719;28;20624;-84
2022/08/19 06:31:55;;;;;;;5.97;5.33;;;19.50;96.50;;;;;;5081824;28;20632;-85
2022/08/19 06:34:23;;;;;;;9.70;7.43;;;19.50;97.00;;;;;;5089346;28;20629;-86
2022/08/19 06:36:51;;;;;;;9.37;6.73;;;19.40;96.80;;;;;;5089865;28;20616;-85
2022/08/19 06:39:22;;;;;;;9.93;6.87;;;19.40;97.30;;;;;;5089940;28;20613;-85
2022/08/19 06:41:52;;;;;;;7.10;5.77;;;19.40;97.10;;;;;;5089773;28;20715;-83
2022/08/19 06:44:19;;;;;;;10.60;7.37;;;19.40;97.40;;;;;;5089802;28;20731;-85
2022/08/19 06:46:48;;;;;;;10.93;6.37;;;19.40;97.70;;;;;;5089139;28;20612;-85
2022/08/19 06:49:15;;;;;;;8.80;6.40;;;19.40;98.20;;;;;;5090108;28;20677;-86
2022/08/19 06:51:43;;;;;;;11.10;7.47;;;19.40;98.80;;;;;;5090064;28;20720;-84
2022/08/19 06:54:11;;;;;;;9.67;6.43;;;19.30;98.50;;;;;;5090317;28;20644;-85
2022/08/19 06:56:38;;;;;;;8.73;6.60;;;19.20;99.20;;;;;;5087861;28;20716;-86
2022/08/19 06:59:12;;;;;;;10.60;6.97;;;19.20;99.60;;;;;;5072516;28;20682;-85
2022/08/19 07:01:41;;;;;;;9.83;6.63;;;19.20;99.90;;;;;;5090290;28;20628;-87
2022/08/19 07:04:09;;;;;;;10.27;6.67;;;19.20;99.90;;;;;;5090275;28;21324;-86
2022/08/19 07:06:37;;;;;;;10.87;7.47;;;19.20;99.90;;;;;;5089796;28;20617;-86
2022/08/19 07:09:05;;;;;;;9.13;6.87;;;19.20;99.90;;;;;;5089406;28;20704;-86
2022/08/19 07:11:32;;;;;;;11.80;6.77;;;19.20;99.90;;;;;;5089801;28;20623;-84
2022/08/19 07:13:59;;;;;;;10.27;6.77;;;19.10;99.90;;;;;;5089898;28;20621;-86
2022/08/19 07:16:27;;;;;;;9.40;7.50;;;19.20;99.90;;;;;;5089574;28;20706;-85
2022/08/19 07:18:55;;;;;;;11.27;7.00;;;19.20;99.90;;;;;;5090234;28;20627;-85
2022/08/19 07:21:27;;;;;;;8.63;6.63;;;19.10;99.90;;;;;;5089994;28;21063;-87
2022/08/19 07:23:55;;;;;;;8.10;6.07;;;19.10;99.90;;;;;;5077524;28;20629;-86
2022/08/19 07:26:25;;;;;;;11.13;7.10;;;19.00;99.90;;;;;;5068937;28;20618;-86
2022/08/19 07:28:53;;;;;;;9.83;7.00;;;19.10;99.90;;;;;;5068817;28;21266;-86
2022/08/19 07:31:21;;;;;;;10.00;6.10;;;19.00;99.90;;;;;;5077186;28;20652;-86
2022/08/19 07:33:52;;;;;;;7.30;6.10;;;18.90;99.90;;;;;;5090172;28;21221;-85
2022/08/19 07:36:22;;;;;;;8.50;6.97;;;18.90;99.90;;;;;;5089596;28;20648;-86
2022/08/19 07:38:51;;;;;;;11.03;6.57;;;19.00;99.90;;;;;;5090831;28;20601;-86
2022/08/19 07:41:20;;;;;;;8.43;6.87;;;19.00;99.90;;;;;;5089291;28;21151;-86
2022/08/19 07:43:47;;;;;;;9.73;7.17;;;18.90;99.90;;;;;;5089646;28;21475;-86
2022/08/19 07:46:15;;;;;;;8.57;7.07;;;18.90;99.90;;;;;;5089564;28;20711;-85
2022/08/19 07:48:43;;;;;;;11.30;7.73;;;18.90;99.90;;;;;;5089611;28;20648;-86
2022/08/19 07:51:12;;;;;;;9.47;5.43;;;18.90;99.90;;;;;;5088834;28;20632;-88
2022/08/19 07:53:39;;;;;;;6.33;5.67;;;18.90;99.90;;;;;;5089203;28;20616;-86
2022/08/19 07:56:07;;;;;;;9.10;7.20;;;19.00;99.90;;;;;;5088919;28;20736;-86
2022/08/19 07:58:39;;;;;;;8.20;5.80;;;19.10;99.90;;;;;;5070898;28;20725;-85
2022/08/19 08:01:09;;;;;;;7.87;6.03;;;19.00;99.90;;;;;;5087833;28;20627;-85
2022/08/19 08:09:12;;;;;;;7.17;5.47;;;19.10;99.90;;;;;;5089232;28;20653;-86
2022/08/19 08:11:39;;;;;;;7.13;6.27;;;19.10;99.90;;;;;;5089584;28;20608;-86
2022/08/19 08:14:07;;;;;;;7.87;6.30;;;19.10;99.90;;;;;;5089219;28;21194;-87
2022/08/19 08:16:36;;;;;;;7.27;5.60;;;19.10;99.90;;;;;;5088789;28;20712;-86
2022/08/19 08:19:05;;;;;;;8.07;5.80;;;19.20;99.90;;;;;;5089553;28;20644;-86
2022/08/19 08:21:34;;;;;;;8.33;6.17;;;19.30;99.90;;;;;;5089008;28;20621;-87
2022/08/19 08:24:01;;;;;;;9.77;6.57;;;19.20;99.90;;;;;;5075598;28;20622;-85
2022/08/19 08:26:28;;;;;;;8.97;6.10;;;19.20;99.90;;;;;;5068295;28;20613;-86
2022/08/19 08:28:55;;;;;;;8.03;6.60;;;19.20;99.90;;;;;;5068964;28;20665;-86
2022/08/19 08:31:22;;;;;;;9.23;7.30;;;19.20;99.90;;;;;;5076606;28;20620;-86
2022/08/19 08:33:49;;;;;;;10.80;6.63;;;19.10;99.90;;;;;;5089360;28;20673;-87
2022/08/19 08:36:16;;;;;;;8.23;6.40;;;19.00;99.90;;;;;;5088881;28;20768;-87
2022/08/19 08:38:48;;;;;;;8.77;6.80;;;19.00;99.90;;;;;;5088407;28;20615;-87
2022/08/19 08:41:27;;;;;;;6.77;5.43;;;19.10;99.90;;;;;;5088050;28;20678;-87
2022/08/19 08:43:56;;;;;;;10.60;6.60;;;19.10;99.90;;;;;;5088240;28;20674;-86
2022/08/19 08:46:31;;;;;;;6.90;6.20;;;19.10;99.90;;;;;;5088651;28;20663;-87
2022/08/19 08:49:03;;;;;;;9.00;5.70;;;19.20;99.90;;;;;;5092980;28;20687;-87
2022/08/19 08:51:44;;;;;;;8.73;6.13;;;19.10;99.90;;;;;;5093336;28;21174;-88
2022/08/19 08:54:15;;;;;;;8.93;7.67;;;19.00;99.90;;;;;;5092637;28;20620;-88
2022/08/19 08:56:44;;;;;;;8.73;6.57;;;19.10;99.90;;;;;;5089367;28;21429;-89
2022/08/19 08:59:17;;;;;;;11.80;8.93;;;19.10;99.90;;;;;;5077119;28;20612;-88
2022/08/19 09:01:44;;;;;;;7.60;5.43;;;19.20;99.90;;;;;;5080727;28;20625;-88
2022/08/19 09:04:13;;;;;;;8.10;6.47;;;19.40;99.90;;;;;;5080062;28;20613;-87
2022/08/19 09:07:03;;;;;;;7.20;6.00;;;19.30;99.90;;;;;;5071170;28;20614;-89
2022/08/19 09:09:36;;;;;;;8.27;6.80;;;19.40;99.90;;;;;;5070639;28;20775;-88
2022/08/19 09:12:11;;;;;;;7.57;6.73;;;19.30;99.90;;;;;;5071214;28;20686;-88
2022/08/19 09:14:46;;;;;;;8.30;6.87;;;19.40;99.90;;;;;;5071160;28;20636;-89
2022/08/19 09:17:14;;;;;;;9.20;6.60;;;19.30;99.90;;;;;;5071828;28;20681;-87
2022/08/19 09:19:52;;;;;;;10.63;7.03;;;19.30;99.90;;;;;;5070382;28;20609;-89
2022/08/19 09:22:21;;;;;;;7.37;5.83;;;19.30;99.90;;;;;;5070210;28;21013;-88
2022/08/19 09:24:50;;;;;;;8.03;6.40;;;19.40;99.90;;;;;;5070190;28;20624;-87
2022/08/19 09:27:17;;;;;;;7.57;6.77;;;19.30;99.90;;;;;;5070386;28;20935;-87
2022/08/19 09:29:44;;;;;;;10.53;6.47;;;19.40;99.90;;;;;;5069828;28;20673;-85
2022/08/19 09:32:11;;;;;;;6.33;5.27;;;19.40;99.90;;;;;;5069971;28;20673;-86
2022/08/19 09:34:41;;;;;;;8.40;7.23;;;19.30;99.90;;;;;;5077790;28;20718;-87
2022/08/19 09:37:08;;;;;;;7.83;6.50;;;19.30;99.90;;;;;;5090127;28;20719;-87
2022/08/19 09:39:35;;;;;;;12.10;7.80;;;19.50;99.90;;;;;;5089231;28;20617;-87
2022/08/19 09:42:04;;;;;;;7.37;6.60;;;19.50;99.90;;;;;;5072051;28;20651;-86
2022/08/19 09:44:33;;;;;;;8.20;5.10;;;19.50;99.90;;;;;;5075254;28;20952;-88
2022/08/19 09:47:00;;;;;;;11.63;6.67;;;19.50;99.90;;;;;;5079218;28;20626;-87
2022/08/19 09:49:27;;;;;;;7.97;5.73;;;19.50;99.90;;;;;;5079693;28;20665;-85
2022/08/19 09:51:55;;;;;;;6.80;5.50;;;19.60;99.90;;;;;;5079792;28;20620;-87
2022/08/19 09:54:23;;;;;;;8.00;7.10;;;19.60;99.90;;;;;;5078814;28;20620;-87
2022/08/19 09:56:50;;;;;;;9.20;6.70;;;19.70;99.90;;;;;;5042163;28;1090142;-87
2022/08/19 09:59:18;;;;;;;6.20;5.27;;;19.70;99.90;;;;;;5083700;28;20253;-85
2022/08/19 10:01:45;;;;;;;6.80;5.50;;;19.60;99.90;;;;;;5070792;28;20625;-88
2022/08/19 10:04:12;;;;;;;6.97;5.20;;;19.60;99.90;;;;;;5070541;28;20605;-87
2022/08/19 10:06:41;;;;;;;8.90;6.40;;;19.60;99.90;;;;;;5069572;28;21295;-87
2022/08/19 10:09:10;;;;;;;9.27;6.50;;;19.70;99.90;;;;;;5070338;28;20664;-86
2022/08/19 10:11:40;;;;;;;6.70;6.00;;;19.70;99.90;;;;;;5070612;28;20629;-88
2022/08/19 10:14:08;;;;;;;5.80;5.20;;;19.80;99.90;;;;;;5080030;28;20636;-88
2022/08/19 10:16:39;;;;;;;7.30;6.17;;;19.80;99.90;;;;;;5078243;28;20606;-88
2022/08/19 10:19:06;;;;;;;5.80;5.20;;;19.90;99.90;;;;;;5079019;28;20641;-87
2022/08/19 10:21:35;;;;;;;6.70;5.87;;;19.90;99.90;;;;;;5081000;28;20712;-85
2022/08/19 10:24:05;;;;;;;7.27;5.40;;;19.80;99.90;;;;;;5080943;28;20729;-88
2022/08/19 10:26:34;;;;;;;7.43;5.40;;;19.80;99.90;;;;;;5078059;28;20644;-85
2022/08/19 10:29:01;;;;;;;7.50;5.73;;;20.00;99.90;;;;;;5079542;28;20658;-86
2022/08/19 10:31:30;;;;;;;9.03;5.63;;;19.90;99.90;;;;;;5078809;28;20745;-87
2022/08/19 10:33:59;;;;;;;5.73;5.13;;;20.00;99.90;;;;;;5089899;28;20623;-86
2022/08/19 10:36:30;;;;;;;7.00;5.27;;;20.00;99.90;;;;;;5089561;28;20661;-86
2022/08/19 10:39:01;;;;;;;9.07;6.57;;;20.10;99.90;;;;;;5090775;28;20723;-87
2022/08/19 10:41:30;;;;;;;7.30;5.43;;;20.10;99.90;;;;;;5090570;28;20630;-87
2022/08/19 10:44:00;;;;;;;7.47;5.07;;;20.10;99.90;;;;;;5090376;28;20612;-87
2022/08/19 10:46:28;;;;;;;6.23;5.53;;;20.10;99.90;;;;;;5090027;28;20704;-87
2022/08/19 10:48:55;;;;;;;5.47;4.93;;;20.10;99.90;;;;;;5090030;28;21293;-89
2022/08/19 10:54:07;;;;;;;8.80;5.60;;;20.20;99.90;;;;;;5048212;28;20733;-86
2022/08/19 10:56:52;;;;;;;8.27;4.90;;;20.20;99.90;;;;;;5068763;28;20639;-87
2022/08/19 10:59:21;;;;;;;6.97;5.30;;;20.00;99.90;;;;;;5079415;28;20616;-88
2022/08/19 11:01:48;;;;;;;5.33;4.60;;;20.00;99.90;;;;;;5077967;28;20606;-87
2022/08/19 11:04:17;;;;;;;5.37;4.70;;;20.10;99.90;;;;;;5078441;28;20724;-88
2022/08/19 11:06:49;;;;;;;7.50;4.60;;;20.20;99.90;;;;;;5079443;28;20743;-89
2022/08/19 11:09:18;;;;;;;5.67;5.17;;;20.20;99.90;;;;;;5086850;28;20648;-87
2022/08/19 11:11:45;;;;;;;5.50;4.90;;;20.20;99.90;;;;;;5089194;28;20648;-88
2022/08/19 11:14:14;;;;;;;7.97;5.60;;;20.20;99.90;;;;;;5082880;28;21259;-87
2022/08/19 11:16:42;;;;;;;5.13;4.67;;;20.30;99.90;;;;;;5077675;28;20610;-86
2022/08/19 11:19:12;;;;;;;6.30;4.67;;;20.30;99.90;;;;;;5077761;28;21268;-87
2022/08/19 11:21:42;;;;;;;5.87;4.87;;;20.40;99.90;;;;;;5077696;28;20649;-86
2022/08/19 11:24:12;;;;;;;7.23;4.83;;;20.30;99.90;;;;;;5079530;28;20618;-87
2022/08/19 11:26:41;;;;;;;5.23;4.73;;;20.30;99.90;;;;;;5077166;28;20642;-87
2022/08/19 11:29:12;;;;;;;7.70;5.30;;;20.40;99.90;;;;;;5069779;28;21235;-88
2022/08/19 11:31:41;;;;;;;6.20;5.10;;;20.50;99.90;;;;;;5075308;28;20636;-86
2022/08/19 11:34:13;;;;;;;5.73;5.07;;;20.50;99.90;;;;;;5076421;28;20614;-87
2022/08/19 11:36:42;;;;;;;6.70;4.47;;;20.70;99.90;;;;;;5068669;28;20703;-88
2022/08/19 11:39:11;;;;;;;5.13;4.63;;;20.90;99.90;;;;;;5068813;28;20629;-87
2022/08/19 11:41:38;;;;;;;5.80;5.30;;;21.00;99.90;;;;;;5068348;28;20728;-86
2022/08/19 11:44:06;;;;;;;11.63;5.37;;;21.10;99.90;;;;;;5068990;28;20714;-87
2022/08/19 11:46:33;;;;;;;4.93;4.43;;;21.00;99.90;;;;;;5067486;28;20699;-86
2022/08/19 11:49:01;;;;;;;5.93;4.53;;;21.00;99.90;;;;;;5068656;28;20715;-87
2022/08/19 11:51:30;;;;;;;6.30;4.40;;;21.10;99.90;;;;;;5068346;28;20670;-88
2022/08/19 11:53:59;;;;;;;5.60;4.53;;;21.20;99.90;;;;;;5068249;28;20634;-87
2022/08/19 11:56:28;;;;;;;6.90;4.70;;;21.20;99.90;;;;;;5067464;28;21052;-87
2022/08/19 11:58:56;;;;;;;5.30;4.37;;;21.20;99.40;;;;;;5069347;28;20614;-88
2022/08/19 12:01:25;;;;;;;5.40;4.90;;;21.10;99.90;;;;;;5088245;28;20605;-88
2022/08/19 12:03:54;;;;;;;6.00;4.90;;;21.20;99.70;;;;;;5088181;28;21245;-88
2022/08/19 12:06:28;;;;;;;5.10;4.43;;;21.30;99.00;;;;;;5087978;28;20743;-86
2022/08/19 12:08:56;;;;;;;4.90;4.50;;;21.40;98.80;;;;;;5088567;28;20671;-87
2022/08/19 12:11:24;;;;;;;5.83;4.87;;;21.50;98.30;;;;;;5088584;28;21222;-86
2022/08/19 12:13:53;;;;;;;5.27;4.50;;;21.50;98.90;;;;;;5087595;28;20646;-87
2022/08/19 12:16:23;;;;;;;6.40;5.80;;;21.50;97.40;;;;;;5087997;28;20621;-86
2022/08/19 12:18:50;;;;;;;7.10;5.87;;;21.50;98.50;;;;;;5087978;28;21189;-87
2022/08/19 12:21:20;;;;;;;8.47;5.77;;;21.40;96.90;;;;;;5088164;28;20628;-88
2022/08/19 12:23:49;;;;;;;5.50;4.67;;;21.50;98.00;;;;;;5076957;28;21067;-87
2022/08/19 12:26:16;;;;;;;5.07;4.57;;;21.40;98.60;;;;;;5067238;28;21066;-85
2022/08/19 12:28:43;;;;;;;4.80;3.90;;;21.50;97.80;;;;;;5067738;28;20625;-86
2022/08/19 12:31:12;;;;;;;5.17;4.30;;;21.60;98.80;;;;;;5074200;28;20613;-88
2022/08/19 12:33:39;;;;;;;4.90;4.50;;;21.50;99.00;;;;;;5088298;28;20638;-87
2022/08/19 12:36:12;;;;;;;5.37;4.40;;;21.50;98.70;;;;;;5088070;28;20620;-87
2022/08/19 12:38:40;;;;;;;5.73;5.17;;;21.60;97.90;;;;;;5087178;28;20613;-87
2022/08/19 12:41:10;;;;;;;5.50;4.33;;;21.60;98.10;;;;;;5088158;28;20674;-88
2022/08/19 12:43:37;;;;;;;5.10;4.20;;;21.70;98.10;;;;;;5088130;28;20701;-87
2022/08/19 12:46:05;;;;;;;6.07;4.83;;;21.60;97.80;;;;;;5088046;28;20625;-87
2022/08/19 12:48:34;;;;;;;5.67;4.97;;;21.60;98.00;;;;;;5087695;28;20609;-87
2022/08/19 12:51:06;;;;;;;7.13;6.30;;;21.50;98.10;;;;;;5087976;28;20719;-87
2022/08/19 12:53:33;;;;;;;8.50;7.00;;;21.60;99.80;;;;;;5087633;28;20628;-87
2022/08/19 12:56:00;;;;;;;8.23;7.00;;;21.50;99.90;;;;;;5088091;28;20706;-87
2022/08/19 12:58:28;;;;;;;7.83;5.93;;;21.50;99.90;;;;;;5070485;28;20721;-87
2022/08/19 13:00:55;;;;;;;8.63;7.10;;;21.40;99.90;;;;;;5085320;28;20618;-86
2022/08/19 13:03:22;;;;;;;10.50;7.40;;;21.40;99.90;;;;;;5087433;28;20623;-87
2022/08/19 13:05:51;;;;;;;7.70;6.87;;;21.40;99.90;;;;;;5087181;28;20612;-87